sensor_id;sensor_type;location;lat;lon;timestamp;temperature;humidity
69731;SHT31;56996;48.138;11.538;2023-02-15T00:00:03;2.02;80.18
69731;SHT31;56996;48.138;11.538;2023-02-15T00:02:32;2.00;80.28
69731;SHT31;56996;48.138;11.538;2023-02-15T00:04:58;1.99;80.32
69731;SHT31;56996;48.138;11.538;2023-02-15T00:07:25;2.00;80.38
69731;SHT31;56996;48.138;11.538;2023-02-15T00:09:52;2.00;80.48
69731;SHT31;56996;48.138;11.538;2023-02-15T00:12:18;2.02;80.50
69731;SHT31;56996;48.138;11.538;2023-02-15T00:14:45;2.04;80.34
69731;SHT31;56996;48.138;11.538;2023-02-15T00:17:12;2.05;80.30
69731;SHT31;56996;48.138;11.538;2023-02-15T00:19:38;2.07;80.23
69731;SHT31;56996;48.138;11.538;2023-02-15T00:22:06;2.07;80.22
69731;SHT31;56996;48.138;11.538;2023-02-15T00:24:33;1.99;80.18
69731;SHT31;56996;48.138;11.538;2023-02-15T00:27:00;1.83;80.45
69731;SHT31;56996;48.138;11.538;2023-02-15T00:29:26;1.78;80.64
69731;SHT31;56996;48.138;11.538;2023-02-15T00:31:54;1.82;80.64
69731;SHT31;56996;48.138;11.538;2023-02-15T00:34:24;1.80;80.52
69731;SHT31;56996;48.138;11.538;2023-02-15T00:36:53;1.67;80.79
69731;SHT31;56996;48.138;11.538;2023-02-15T00:39:19;1.60;80.80
69731;SHT31;56996;48.138;11.538;2023-02-15T00:41:46;1.69;80.62
69731;SHT31;56996;48.138;11.538;2023-02-15T00:44:13;1.76;80.28
69731;SHT31;56996;48.138;11.538;2023-02-15T00:46:41;1.68;80.48
69731;SHT31;56996;48.138;11.538;2023-02-15T00:49:08;1.53;81.01
69731;SHT31;56996;48.138;11.538;2023-02-15T00:51:36;1.48;80.91
69731;SHT31;56996;48.138;11.538;2023-02-15T00:54:04;1.50;80.85
69731;SHT31;56996;48.138;11.538;2023-02-15T00:56:31;1.54;80.63
69731;SHT31;56996;48.138;11.538;2023-02-15T00:58:58;1.53;80.51
69731;SHT31;56996;48.138;11.538;2023-02-15T01:01:25;1.48;80.48
69731;SHT31;56996;48.138;11.538;2023-02-15T01:03:52;1.47;80.49
69731;SHT31;56996;48.138;11.538;2023-02-15T01:06:20;1.53;80.25
69731;SHT31;56996;48.138;11.538;2023-02-15T01:08:47;1.51;80.18
69731;SHT31;56996;48.138;11.538;2023-02-15T01:11:15;1.43;80.29
69731;SHT31;56996;48.138;11.538;2023-02-15T01:14:08;1.44;80.30
69731;SHT31;56996;48.138;11.538;2023-02-15T01:16:37;1.39;80.67
69731;SHT31;56996;48.138;11.538;2023-02-15T01:19:04;1.28;80.57
69731;SHT31;56996;48.138;11.538;2023-02-15T01:21:32;1.31;80.64
69731;SHT31;56996;48.138;11.538;2023-02-15T01:24:01;1.37;80.49
69731;SHT31;56996;48.138;11.538;2023-02-15T01:26:29;1.46;80.37
69731;SHT31;56996;48.138;11.538;2023-02-15T01:28:57;1.50;79.98
69731;SHT31;56996;48.138;11.538;2023-02-15T01:31:24;1.50;79.70
69731;SHT31;56996;48.138;11.538;2023-02-15T01:33:50;1.47;79.53
69731;SHT31;56996;48.138;11.538;2023-02-15T01:36:17;1.46;79.58
69731;SHT31;56996;48.138;11.538;2023-02-15T01:38:44;1.44;79.45
69731;SHT31;56996;48.138;11.538;2023-02-15T01:41:12;1.39;79.33
69731;SHT31;56996;48.138;11.538;2023-02-15T01:43:57;1.35;79.30
69731;SHT31;56996;48.138;11.538;2023-02-15T01:46:43;1.30;79.30
69731;SHT31;56996;48.138;11.538;2023-02-15T01:49:19;1.23;79.34
69731;SHT31;56996;48.138;11.538;2023-02-15T01:51:50;1.22;79.52
69731;SHT31;56996;48.138;11.538;2023-02-15T01:54:30;1.20;79.50
69731;SHT31;56996;48.138;11.538;2023-02-15T01:57:03;1.17;79.50
69731;SHT31;56996;48.138;11.538;2023-02-15T01:59:35;1.12;79.54
69731;SHT31;56996;48.138;11.538;2023-02-15T02:02:06;1.07;79.67
69731;SHT31;56996;48.138;11.538;2023-02-15T02:04:47;1.02;79.62
69731;SHT31;56996;48.138;11.538;2023-02-15T02:07:18;0.96;79.76
69731;SHT31;56996;48.138;11.538;2023-02-15T02:09:48;0.83;80.07
69731;SHT31;56996;48.138;11.538;2023-02-15T02:12:16;0.71;80.39
69731;SHT31;56996;48.138;11.538;2023-02-15T02:14:44;0.75;80.60
69731;SHT31;56996;48.138;11.538;2023-02-15T02:29:38;0.52;81.72
69731;SHT31;56996;48.138;11.538;2023-02-15T02:39:00;0.48;81.63
69731;SHT31;56996;48.138;11.538;2023-02-15T02:45:00;0.42;81.89
69731;SHT31;56996;48.138;11.538;2023-02-15T02:50:13;0.27;82.37
69731;SHT31;56996;48.138;11.538;2023-02-15T02:52:45;0.37;82.18
69731;SHT31;56996;48.138;11.538;2023-02-15T02:55:29;0.50;82.01
69731;SHT31;56996;48.138;11.538;2023-02-15T03:00:57;0.41;81.96
69731;SHT31;56996;48.138;11.538;2023-02-15T03:03:34;0.41;81.87
69731;SHT31;56996;48.138;11.538;2023-02-15T03:06:10;0.43;81.95
69731;SHT31;56996;48.138;11.538;2023-02-15T03:08:47;0.47;81.76
69731;SHT31;56996;48.138;11.538;2023-02-15T03:11:21;0.44;81.98
69731;SHT31;56996;48.138;11.538;2023-02-15T03:13:49;0.53;82.01
69731;SHT31;56996;48.138;11.538;2023-02-15T03:16:18;0.53;81.94
69731;SHT31;56996;48.138;11.538;2023-02-15T03:19:02;0.52;82.01
69731;SHT31;56996;48.138;11.538;2023-02-15T03:21:44;0.49;82.29
69731;SHT31;56996;48.138;11.538;2023-02-15T03:24:28;0.38;83.15
69731;SHT31;56996;48.138;11.538;2023-02-15T03:27:20;0.28;83.35
69731;SHT31;56996;48.138;11.538;2023-02-15T03:29:57;0.19;83.59
69731;SHT31;56996;48.138;11.538;2023-02-15T03:32:27;0.11;83.66
69731;SHT31;56996;48.138;11.538;2023-02-15T03:34:59;0.11;83.51
69731;SHT31;56996;48.138;11.538;2023-02-15T03:37:27;0.10;84.33
69731;SHT31;56996;48.138;11.538;2023-02-15T03:40:12;0.08;84.63
69731;SHT31;56996;48.138;11.538;2023-02-15T03:43:12;0.05;84.06
69731;SHT31;56996;48.138;11.538;2023-02-15T03:49:05;0.10;84.47
69731;SHT31;56996;48.138;11.538;2023-02-15T03:51:38;0.06;85.00
69731;SHT31;56996;48.138;11.538;2023-02-15T03:54:17;0.03;85.16
69731;SHT31;56996;48.138;11.538;2023-02-15T04:00:17;-0.00;84.80
69731;SHT31;56996;48.138;11.538;2023-02-15T04:03:09;0.03;84.17
69731;SHT31;56996;48.138;11.538;2023-02-15T04:05:48;0.13;83.96
69731;SHT31;56996;48.138;11.538;2023-02-15T04:08:15;0.20;83.82
69731;SHT31;56996;48.138;11.538;2023-02-15T04:10:41;0.22;83.53
69731;SHT31;56996;48.138;11.538;2023-02-15T04:13:23;0.24;83.69
69731;SHT31;56996;48.138;11.538;2023-02-15T04:15:59;0.20;83.63
69731;SHT31;56996;48.138;11.538;2023-02-15T04:18:31;0.26;83.58
69731;SHT31;56996;48.138;11.538;2023-02-15T04:21:20;0.40;83.34
69731;SHT31;56996;48.138;11.538;2023-02-15T04:24:08;0.41;83.44
69731;SHT31;56996;48.138;11.538;2023-02-15T04:26:54;0.30;83.55
69731;SHT31;56996;48.138;11.538;2023-02-15T04:29:24;0.29;83.51
69731;SHT31;56996;48.138;11.538;2023-02-15T04:31:53;0.36;83.38
69731;SHT31;56996;48.138;11.538;2023-02-15T04:34:23;0.49;83.14
69731;SHT31;56996;48.138;11.538;2023-02-15T04:36:49;0.61;82.79
69731;SHT31;56996;48.138;11.538;2023-02-15T04:39:17;0.69;82.51
69731;SHT31;56996;48.138;11.538;2023-02-15T04:41:44;0.76;82.29
69731;SHT31;56996;48.138;11.538;2023-02-15T04:44:12;0.82;82.18
69731;SHT31;56996;48.138;11.538;2023-02-15T04:46:38;0.86;82.00
69731;SHT31;56996;48.138;11.538;2023-02-15T04:49:05;0.88;81.90
69731;SHT31;56996;48.138;11.538;2023-02-15T04:51:32;0.91;81.89
69731;SHT31;56996;48.138;11.538;2023-02-15T04:53:58;0.92;81.70
69731;SHT31;56996;48.138;11.538;2023-02-15T04:56:25;0.91;81.63
69731;SHT31;56996;48.138;11.538;2023-02-15T04:58:52;0.94;81.61
69731;SHT31;56996;48.138;11.538;2023-02-15T05:01:18;0.97;81.50
69731;SHT31;56996;48.138;11.538;2023-02-15T05:03:45;1.00;81.48
69731;SHT31;56996;48.138;11.538;2023-02-15T05:06:12;0.99;81.32
69731;SHT31;56996;48.138;11.538;2023-02-15T05:08:38;0.96;81.25
69731;SHT31;56996;48.138;11.538;2023-02-15T05:11:05;0.94;81.29
69731;SHT31;56996;48.138;11.538;2023-02-15T05:13:32;0.94;81.28
69731;SHT31;56996;48.138;11.538;2023-02-15T05:15:58;0.96;81.24
69731;SHT31;56996;48.138;11.538;2023-02-15T05:18:26;0.95;81.25
69731;SHT31;56996;48.138;11.538;2023-02-15T05:20:52;0.93;81.07
69731;SHT31;56996;48.138;11.538;2023-02-15T05:23:19;0.89;80.96
69731;SHT31;56996;48.138;11.538;2023-02-15T05:25:49;0.84;80.88
69731;SHT31;56996;48.138;11.538;2023-02-15T05:28:36;0.81;80.82
69731;SHT31;56996;48.138;11.538;2023-02-15T05:31:05;0.77;80.80
69731;SHT31;56996;48.138;11.538;2023-02-15T05:33:43;0.75;80.80
69731;SHT31;56996;48.138;11.538;2023-02-15T05:36:11;0.74;80.74
69731;SHT31;56996;48.138;11.538;2023-02-15T05:38:38;0.74;80.64
69731;SHT31;56996;48.138;11.538;2023-02-15T05:41:05;0.73;80.58
69731;SHT31;56996;48.138;11.538;2023-02-15T05:43:34;0.72;80.41
69731;SHT31;56996;48.138;11.538;2023-02-15T05:46:01;0.62;80.36
69731;SHT31;56996;48.138;11.538;2023-02-15T05:48:30;0.56;80.75
69731;SHT31;56996;48.138;11.538;2023-02-15T05:51:07;0.56;80.76
69731;SHT31;56996;48.138;11.538;2023-02-15T05:53:36;0.48;80.86
69731;SHT31;56996;48.138;11.538;2023-02-15T05:56:04;0.36;81.02
69731;SHT31;56996;48.138;11.538;2023-02-15T05:58:34;0.38;81.19
69731;SHT31;56996;48.138;11.538;2023-02-15T06:01:07;0.46;81.02
69731;SHT31;56996;48.138;11.538;2023-02-15T06:03:35;0.49;80.76
69731;SHT31;56996;48.138;11.538;2023-02-15T06:06:02;0.48;80.83
69731;SHT31;56996;48.138;11.538;2023-02-15T06:08:31;0.53;80.89
69731;SHT31;56996;48.138;11.538;2023-02-15T06:10:58;0.56;80.81
69731;SHT31;56996;48.138;11.538;2023-02-15T06:13:25;0.58;80.77
69731;SHT31;56996;48.138;11.538;2023-02-15T06:15:52;0.60;80.48
69731;SHT31;56996;48.138;11.538;2023-02-15T06:18:19;0.60;80.42
69731;SHT31;56996;48.138;11.538;2023-02-15T06:20:46;0.63;80.24
69731;SHT31;56996;48.138;11.538;2023-02-15T06:23:13;0.61;80.12
69731;SHT31;56996;48.138;11.538;2023-02-15T06:25:41;0.52;80.11
69731;SHT31;56996;48.138;11.538;2023-02-15T06:28:09;0.45;80.44
69731;SHT31;56996;48.138;11.538;2023-02-15T06:30:35;0.47;80.50
69731;SHT31;56996;48.138;11.538;2023-02-15T06:33:02;0.51;80.38
69731;SHT31;56996;48.138;11.538;2023-02-15T06:35:29;0.53;80.30
69731;SHT31;56996;48.138;11.538;2023-02-15T06:37:55;0.56;80.21
69731;SHT31;56996;48.138;11.538;2023-02-15T06:40:22;0.58;80.12
69731;SHT31;56996;48.138;11.538;2023-02-15T06:42:49;0.63;80.17
69731;SHT31;56996;48.138;11.538;2023-02-15T06:45:15;0.58;80.01
69731;SHT31;56996;48.138;11.538;2023-02-15T06:47:42;0.37;80.48
69731;SHT31;56996;48.138;11.538;2023-02-15T06:50:09;0.17;81.02
69731;SHT31;56996;48.138;11.538;2023-02-15T06:52:37;0.12;81.29
69731;SHT31;56996;48.138;11.538;2023-02-15T06:55:03;0.12;81.39
69731;SHT31;56996;48.138;11.538;2023-02-15T06:57:31;0.22;81.33
69731;SHT31;56996;48.138;11.538;2023-02-15T06:59:59;0.35;81.02
69731;SHT31;56996;48.138;11.538;2023-02-15T07:02:26;0.45;80.73
69731;SHT31;56996;48.138;11.538;2023-02-15T07:04:53;0.44;80.67
69731;SHT31;56996;48.138;11.538;2023-02-15T07:07:20;0.49;80.74
69731;SHT31;56996;48.138;11.538;2023-02-15T07:09:46;0.59;80.51
69731;SHT31;56996;48.138;11.538;2023-02-15T07:12:13;0.65;80.34
69731;SHT31;56996;48.138;11.538;2023-02-15T07:14:59;0.73;80.10
69731;SHT31;56996;48.138;11.538;2023-02-15T07:17:26;0.77;79.91
69731;SHT31;56996;48.138;11.538;2023-02-15T07:20:03;0.85;79.89
69731;SHT31;56996;48.138;11.538;2023-02-15T07:22:34;0.95;79.69
69731;SHT31;56996;48.138;11.538;2023-02-15T07:25:06;0.96;79.49
69731;SHT31;56996;48.138;11.538;2023-02-15T07:27:34;0.88;79.62
69731;SHT31;56996;48.138;11.538;2023-02-15T07:30:02;0.93;79.66
69731;SHT31;56996;48.138;11.538;2023-02-15T07:32:30;1.02;79.52
69731;SHT31;56996;48.138;11.538;2023-02-15T07:34:58;1.13;79.59
69731;SHT31;56996;48.138;11.538;2023-02-15T07:37:26;1.18;79.09
69731;SHT31;56996;48.138;11.538;2023-02-15T07:39:53;1.21;78.84
69731;SHT31;56996;48.138;11.538;2023-02-15T07:42:20;1.21;78.79
69731;SHT31;56996;48.138;11.538;2023-02-15T07:44:48;1.24;78.69
69731;SHT31;56996;48.138;11.538;2023-02-15T07:47:15;1.18;78.71
69731;SHT31;56996;48.138;11.538;2023-02-15T07:49:42;1.21;78.82
69731;SHT31;56996;48.138;11.538;2023-02-15T07:52:08;1.19;78.43
69731;SHT31;56996;48.138;11.538;2023-02-15T07:54:35;1.06;78.76
69731;SHT31;56996;48.138;11.538;2023-02-15T07:57:02;1.13;78.87
69731;SHT31;56996;48.138;11.538;2023-02-15T07:59:29;1.26;78.73
69731;SHT31;56996;48.138;11.538;2023-02-15T08:01:55;1.38;78.30
69731;SHT31;56996;48.138;11.538;2023-02-15T08:04:23;1.39;77.95
69731;SHT31;56996;48.138;11.538;2023-02-15T08:06:52;1.40;78.00
69731;SHT31;56996;48.138;11.538;2023-02-15T08:09:20;1.55;77.73
69731;SHT31;56996;48.138;11.538;2023-02-15T08:11:48;1.68;77.49
69731;SHT31;56996;48.138;11.538;2023-02-15T08:14:19;1.84;77.00
69731;SHT31;56996;48.138;11.538;2023-02-15T08:16:49;1.93;76.64
69731;SHT31;56996;48.138;11.538;2023-02-15T08:21:47;2.11;76.22
69731;SHT31;56996;48.138;11.538;2023-02-15T08:24:20;2.17;75.87
69731;SHT31;56996;48.138;11.538;2023-02-15T08:26:50;2.27;75.55
69731;SHT31;56996;48.138;11.538;2023-02-15T08:29:19;2.36;75.39
69731;SHT31;56996;48.138;11.538;2023-02-15T08:31:55;2.46;74.80
69731;SHT31;56996;48.138;11.538;2023-02-15T08:34:25;2.52;74.71
69731;SHT31;56996;48.138;11.538;2023-02-15T08:36:52;2.61;74.56
69731;SHT31;56996;48.138;11.538;2023-02-15T08:39:18;2.65;74.20
69731;SHT31;56996;48.138;11.538;2023-02-15T08:41:46;2.69;74.12
69731;SHT31;56996;48.138;11.538;2023-02-15T08:44:15;2.78;74.00
69731;SHT31;56996;48.138;11.538;2023-02-15T08:46:45;2.93;73.84
69731;SHT31;56996;48.138;11.538;2023-02-15T08:49:15;3.06;73.42
69731;SHT31;56996;48.138;11.538;2023-02-15T08:51:45;3.16;73.12
69731;SHT31;56996;48.138;11.538;2023-02-15T08:54:15;3.30;72.78
69731;SHT31;56996;48.138;11.538;2023-02-15T08:56:44;3.48;72.34
69731;SHT31;56996;48.138;11.538;2023-02-15T08:59:12;3.59;71.95
69731;SHT31;56996;48.138;11.538;2023-02-15T09:01:46;3.62;71.55
69731;SHT31;56996;48.138;11.538;2023-02-15T09:04:15;3.56;71.36
69731;SHT31;56996;48.138;11.538;2023-02-15T09:06:43;3.33;71.48
69731;SHT31;56996;48.138;11.538;2023-02-15T09:09:14;3.22;71.97
69731;SHT31;56996;48.138;11.538;2023-02-15T09:11:43;3.23;72.05
69731;SHT31;56996;48.138;11.538;2023-02-15T09:14:14;3.27;71.85
69731;SHT31;56996;48.138;11.538;2023-02-15T09:16:51;3.29;71.77
69731;SHT31;56996;48.138;11.538;2023-02-15T09:19:19;3.26;71.86
69731;SHT31;56996;48.138;11.538;2023-02-15T09:21:48;3.29;71.96
69731;SHT31;56996;48.138;11.538;2023-02-15T09:24:15;3.35;71.92
69731;SHT31;56996;48.138;11.538;2023-02-15T09:26:44;3.43;71.81
69731;SHT31;56996;48.138;11.538;2023-02-15T09:29:14;3.59;71.75
69731;SHT31;56996;48.138;11.538;2023-02-15T09:31:45;4.28;71.06
69731;SHT31;56996;48.138;11.538;2023-02-15T09:34:16;5.42;69.00
69731;SHT31;56996;48.138;11.538;2023-02-15T09:36:47;6.62;66.76
69731;SHT31;56996;48.138;11.538;2023-02-15T09:39:16;7.80;64.44
69731;SHT31;56996;48.138;11.538;2023-02-15T09:44:46;9.95;60.11
69731;SHT31;56996;48.138;11.538;2023-02-15T09:50:43;12.34;55.68
69731;SHT31;56996;48.138;11.538;2023-02-15T09:53:55;13.26;53.32
69731;SHT31;56996;48.138;11.538;2023-02-15T09:56:44;13.84;51.12
69731;SHT31;56996;48.138;11.538;2023-02-15T10:05:20;14.66;48.68
69731;SHT31;56996;48.138;11.538;2023-02-15T10:08:10;15.84;46.76
69731;SHT31;56996;48.138;11.538;2023-02-15T10:11:02;16.89;44.21
69731;SHT31;56996;48.138;11.538;2023-02-15T10:14:06;16.83;43.27
69731;SHT31;56996;48.138;11.538;2023-02-15T10:28:23;19.51;37.80
69731;SHT31;56996;48.138;11.538;2023-02-15T10:30:57;19.00;35.79
69731;SHT31;56996;48.138;11.538;2023-02-15T10:33:43;18.28;35.88
69731;SHT31;56996;48.138;11.538;2023-02-15T10:39:04;18.63;37.50
69731;SHT31;56996;48.138;11.538;2023-02-15T10:54:14;17.67;31.66
69731;SHT31;56996;48.138;11.538;2023-02-15T10:57:25;16.31;34.82
69731;SHT31;56996;48.138;11.538;2023-02-15T11:03:08;15.43;37.61
69731;SHT31;56996;48.138;11.538;2023-02-15T11:05:57;14.95;37.55
69731;SHT31;56996;48.138;11.538;2023-02-15T11:08:32;13.87;39.48
69731;SHT31;56996;48.138;11.538;2023-02-15T11:11:08;13.50;41.27
69731;SHT31;56996;48.138;11.538;2023-02-15T11:13:48;13.65;41.24
69731;SHT31;56996;48.138;11.538;2023-02-15T11:16:57;13.39;41.75
69731;SHT31;56996;48.138;11.538;2023-02-15T11:19:44;12.84;42.28
69731;SHT31;56996;48.138;11.538;2023-02-15T11:22:30;12.18;44.07
69731;SHT31;56996;48.138;11.538;2023-02-15T11:24:59;11.84;44.98
69731;SHT31;56996;48.138;11.538;2023-02-15T11:27:31;11.82;45.18
69731;SHT31;56996;48.138;11.538;2023-02-15T11:30:12;11.47;45.82
69731;SHT31;56996;48.138;11.538;2023-02-15T11:32:46;11.05;46.95
69731;SHT31;56996;48.138;11.538;2023-02-15T11:35:27;10.77;47.71
69731;SHT31;56996;48.138;11.538;2023-02-15T11:38:02;10.60;48.35
69731;SHT31;56996;48.138;11.538;2023-02-15T11:40:49;10.41;48.67
69731;SHT31;56996;48.138;11.538;2023-02-15T11:43:27;10.23;49.87
69731;SHT31;56996;48.138;11.538;2023-02-15T11:46:00;10.15;50.46
69731;SHT31;56996;48.138;11.538;2023-02-15T11:48:27;10.06;50.52
69731;SHT31;56996;48.138;11.538;2023-02-15T11:50:57;10.22;50.46
69731;SHT31;56996;48.138;11.538;2023-02-15T11:53:25;10.40;50.15
69731;SHT31;56996;48.138;11.538;2023-02-15T11:55:59;10.32;50.46
69731;SHT31;56996;48.138;11.538;2023-02-15T11:58:32;10.34;50.65
69731;SHT31;56996;48.138;11.538;2023-02-15T12:01:08;10.49;50.49
69731;SHT31;56996;48.138;11.538;2023-02-15T12:03:47;10.43;50.50
69731;SHT31;56996;48.138;11.538;2023-02-15T12:11:51;10.41;50.60
69731;SHT31;56996;48.138;11.538;2023-02-15T12:14:17;10.31;51.00
69731;SHT31;56996;48.138;11.538;2023-02-15T12:16:49;10.25;51.33
69731;SHT31;56996;48.138;11.538;2023-02-15T12:19:38;10.32;51.37
69731;SHT31;56996;48.138;11.538;2023-02-15T12:22:10;10.34;51.30
69731;SHT31;56996;48.138;11.538;2023-02-15T12:28:29;10.30;50.91
69731;SHT31;56996;48.138;11.538;2023-02-15T12:34:10;10.21;51.26
69731;SHT31;56996;48.138;11.538;2023-02-15T12:36:56;10.29;51.42
69731;SHT31;56996;48.138;11.538;2023-02-15T12:39:30;10.27;51.61
69731;SHT31;56996;48.138;11.538;2023-02-15T12:44:32;10.34;51.56
69731;SHT31;56996;48.138;11.538;2023-02-15T12:49:43;10.30;51.41
69731;SHT31;56996;48.138;11.538;2023-02-15T12:52:44;10.30;51.51
69731;SHT31;56996;48.138;11.538;2023-02-15T12:55:19;10.24;51.69
69731;SHT31;56996;48.138;11.538;2023-02-15T12:58:04;10.25;51.79
69731;SHT31;56996;48.138;11.538;2023-02-15T13:00:33;10.29;51.73
69731;SHT31;56996;48.138;11.538;2023-02-15T13:03:01;10.28;51.92
69731;SHT31;56996;48.138;11.538;2023-02-15T13:05:34;10.39;51.93
69731;SHT31;56996;48.138;11.538;2023-02-15T13:08:11;10.43;51.82
69731;SHT31;56996;48.138;11.538;2023-02-15T13:13:19;10.60;51.80
69731;SHT31;56996;48.138;11.538;2023-02-15T13:15:51;10.64;51.68
69731;SHT31;56996;48.138;11.538;2023-02-15T13:18:39;10.54;52.03
69731;SHT31;56996;48.138;11.538;2023-02-15T13:23:40;10.34;52.84
69731;SHT31;56996;48.138;11.538;2023-02-15T13:26:15;10.35;52.90
69731;SHT31;56996;48.138;11.538;2023-02-15T13:28:51;10.33;52.90
69731;SHT31;56996;48.138;11.538;2023-02-15T13:33:51;10.42;53.04
69731;SHT31;56996;48.138;11.538;2023-02-15T13:36:27;10.48;52.84
69731;SHT31;56996;48.138;11.538;2023-02-15T13:44:33;10.35;53.08
69731;SHT31;56996;48.138;11.538;2023-02-15T13:53:39;10.52;53.02
69731;SHT31;56996;48.138;11.538;2023-02-15T14:14:17;10.25;54.79
69731;SHT31;56996;48.138;11.538;2023-02-15T14:17:34;10.12;55.22
69731;SHT31;56996;48.138;11.538;2023-02-15T14:20:20;9.99;55.64
69731;SHT31;56996;48.138;11.538;2023-02-15T14:26:08;9.83;56.11
69731;SHT31;56996;48.138;11.538;2023-02-15T14:32:07;9.91;56.23
69731;SHT31;56996;48.138;11.538;2023-02-15T14:34:50;9.83;56.51
69731;SHT31;56996;48.138;11.538;2023-02-15T14:37:26;9.78;56.66
69731;SHT31;56996;48.138;11.538;2023-02-15T14:40:03;9.74;56.84
69731;SHT31;56996;48.138;11.538;2023-02-15T14:45:49;9.78;56.84
69731;SHT31;56996;48.138;11.538;2023-02-15T14:49:27;9.85;56.63
69731;SHT31;56996;48.138;11.538;2023-02-15T14:51:55;9.78;56.96
69731;SHT31;56996;48.138;11.538;2023-02-15T14:59:38;9.60;57.64
69731;SHT31;56996;48.138;11.538;2023-02-15T15:02:27;9.49;57.89
69731;SHT31;56996;48.138;11.538;2023-02-15T15:05:34;9.47;58.16
69731;SHT31;56996;48.138;11.538;2023-02-15T15:08:03;9.34;58.51
69731;SHT31;56996;48.138;11.538;2023-02-15T15:10:34;9.24;58.67
69731;SHT31;56996;48.138;11.538;2023-02-15T15:18:52;9.03;59.27
69731;SHT31;56996;48.138;11.538;2023-02-15T15:41:42;8.39;61.59
69731;SHT31;56996;48.138;11.538;2023-02-15T15:44:31;8.34;61.81
69731;SHT31;56996;48.138;11.538;2023-02-15T15:47:44;8.22;62.13
69731;SHT31;56996;48.138;11.538;2023-02-15T15:50:32;8.14;62.17
69731;SHT31;56996;48.138;11.538;2023-02-15T15:53:00;8.11;62.22
69731;SHT31;56996;48.138;11.538;2023-02-15T15:55:29;8.04;62.61
69731;SHT31;56996;48.138;11.538;2023-02-15T15:58:02;7.95;62.80
69731;SHT31;56996;48.138;11.538;2023-02-15T16:00:40;7.86;63.09
69731;SHT31;56996;48.138;11.538;2023-02-15T16:03:23;7.76;63.46
69731;SHT31;56996;48.138;11.538;2023-02-15T16:05:52;7.68;63.27
69731;SHT31;56996;48.138;11.538;2023-02-15T16:11:09;7.51;63.89
69731;SHT31;56996;48.138;11.538;2023-02-15T16:13:41;7.39;64.31
69731;SHT31;56996;48.138;11.538;2023-02-15T16:16:09;7.26;64.59
69731;SHT31;56996;48.138;11.538;2023-02-15T16:18:39;7.16;65.05
69731;SHT31;56996;48.138;11.538;2023-02-15T16:21:12;7.10;65.44
69731;SHT31;56996;48.138;11.538;2023-02-15T16:23:50;6.98;65.72
69731;SHT31;56996;48.138;11.538;2023-02-15T16:29:53;6.64;66.79
69731;SHT31;56996;48.138;11.538;2023-02-15T16:32:23;6.50;67.24
69731;SHT31;56996;48.138;11.538;2023-02-15T16:35:00;6.36;67.44
69731;SHT31;56996;48.138;11.538;2023-02-15T16:37:33;6.21;68.09
69731;SHT31;56996;48.138;11.538;2023-02-15T16:40:02;6.07;68.38
69731;SHT31;56996;48.138;11.538;2023-02-15T16:42:30;5.93;68.67
69731;SHT31;56996;48.138;11.538;2023-02-15T16:47:36;5.61;69.14
69731;SHT31;56996;48.138;11.538;2023-02-15T16:50:17;5.44;70.19
69731;SHT31;56996;48.138;11.538;2023-02-15T16:53:03;5.27;70.67
69731;SHT31;56996;48.138;11.538;2023-02-15T16:55:40;5.16;70.07
69731;SHT31;56996;48.138;11.538;2023-02-15T16:58:12;5.09;70.53
69731;SHT31;56996;48.138;11.538;2023-02-15T17:00:42;5.04;71.23
69731;SHT31;56996;48.138;11.538;2023-02-15T17:05:44;4.90;71.75
69731;SHT31;56996;48.138;11.538;2023-02-15T17:08:15;4.80;72.34
69731;SHT31;56996;48.138;11.538;2023-02-15T17:10:44;4.70;72.44
69731;SHT31;56996;48.138;11.538;2023-02-15T17:13:28;4.64;72.54
69731;SHT31;56996;48.138;11.538;2023-02-15T17:18:38;4.61;72.69
69731;SHT31;56996;48.138;11.538;2023-02-15T17:21:16;4.62;72.18
69731;SHT31;56996;48.138;11.538;2023-02-15T17:23:49;4.61;72.90
69731;SHT31;56996;48.138;11.538;2023-02-15T17:28:52;4.55;72.69
69731;SHT31;56996;48.138;11.538;2023-02-15T17:31:27;4.57;72.39
69731;SHT31;56996;48.138;11.538;2023-02-15T17:33:58;4.62;72.38
69731;SHT31;56996;48.138;11.538;2023-02-15T17:36:27;4.65;72.39
69731;SHT31;56996;48.138;11.538;2023-02-15T17:41:27;4.70;72.24
69731;SHT31;56996;48.138;11.538;2023-02-15T17:43:56;4.74;72.21
69731;SHT31;56996;48.138;11.538;2023-02-15T17:46:24;4.75;72.52
69731;SHT31;56996;48.138;11.538;2023-02-15T17:48:52;4.65;73.46
69731;SHT31;56996;48.138;11.538;2023-02-15T17:51:21;4.55;73.11
69731;SHT31;56996;48.138;11.538;2023-02-15T17:53:49;4.47;73.75
69731;SHT31;56996;48.138;11.538;2023-02-15T17:56:35;4.40;74.05
69731;SHT31;56996;48.138;11.538;2023-02-15T17:59:04;4.34;74.04
69731;SHT31;56996;48.138;11.538;2023-02-15T18:01:33;4.35;73.74
69731;SHT31;56996;48.138;11.538;2023-02-15T18:04:32;4.41;74.18
69731;SHT31;56996;48.138;11.538;2023-02-15T18:07:21;4.29;75.49
69731;SHT31;56996;48.138;11.538;2023-02-15T18:10:14;4.18;75.81
69731;SHT31;56996;48.138;11.538;2023-02-15T18:13:02;4.09;75.99
69731;SHT31;56996;48.138;11.538;2023-02-15T18:15:29;4.04;75.73
69731;SHT31;56996;48.138;11.538;2023-02-15T18:17:56;4.02;75.93
69731;SHT31;56996;48.138;11.538;2023-02-15T18:20:24;3.98;76.61
69731;SHT31;56996;48.138;11.538;2023-02-15T18:23:02;3.92;76.65
69731;SHT31;56996;48.138;11.538;2023-02-15T18:25:28;3.88;76.84
69731;SHT31;56996;48.138;11.538;2023-02-15T18:27:55;3.86;77.20
69731;SHT31;56996;48.138;11.538;2023-02-15T18:30:22;3.84;77.09
69731;SHT31;56996;48.138;11.538;2023-02-15T18:32:53;3.79;77.17
69731;SHT31;56996;48.138;11.538;2023-02-15T18:35:23;3.77;77.06
69731;SHT31;56996;48.138;11.538;2023-02-15T18:37:55;3.73;77.42
69731;SHT31;56996;48.138;11.538;2023-02-15T18:40:25;3.70;77.52
69731;SHT31;56996;48.138;11.538;2023-02-15T18:42:53;3.67;77.08
69731;SHT31;56996;48.138;11.538;2023-02-15T18:45:23;3.67;76.98
69731;SHT31;56996;48.138;11.538;2023-02-15T18:47:54;3.67;76.94
69731;SHT31;56996;48.138;11.538;2023-02-15T18:50:21;3.68;76.99
69731;SHT31;56996;48.138;11.538;2023-02-15T18:52:49;3.70;76.67
69731;SHT31;56996;48.138;11.538;2023-02-15T18:55:23;3.76;76.55
69731;SHT31;56996;48.138;11.538;2023-02-15T18:57:53;3.81;76.40
69731;SHT31;56996;48.138;11.538;2023-02-15T19:00:29;3.85;76.47
69731;SHT31;56996;48.138;11.538;2023-02-15T19:03:00;3.88;76.50
69731;SHT31;56996;48.138;11.538;2023-02-15T19:05:28;3.88;76.56
69731;SHT31;56996;48.138;11.538;2023-02-15T19:07:56;3.87;76.69
69731;SHT31;56996;48.138;11.538;2023-02-15T19:10:26;3.85;76.82
69731;SHT31;56996;48.138;11.538;2023-02-15T19:12:55;3.82;77.01
69731;SHT31;56996;48.138;11.538;2023-02-15T19:15:24;3.80;77.14
69731;SHT31;56996;48.138;11.538;2023-02-15T19:17:53;3.76;77.32